Oceanside, CA (92054)

9:44 PM PDT on August 04, 2015 (GMT -0700)
South Oceanside/Fire Mountain | | Change Station
CLOSE
Current Station
Personal Weather Station
Location: Oceanside, CA
Elevation: 121 ft
Nearby Weather Stations

Elev 121 ft 33.19 °N, 117.36 °W | Updated 13 seconds ago

Clear
Clear
71.2 °F
Feels Like 70 °F
N
2.0
Wind Variable Wind from West
Gusts 8.1 mph

Today
High -- | Low -- °F
--% Chance of Precip.
Yesterday
High -- | Low -- °F
Precip. -- in
6:04 AM 7:46 PM
Waning Gibbous, 71% visible
Pressure 29.88 in
Visibility 10.0 miles
Clouds Clear
Heat Index 70 °F
Dew Point 67 °F
Humidity 85%
Rainfall 0.00 in
Snow Depth Not available.
UV 0 out of 12
Pollen 4.20 out of 12
Air Quality Not available.
Flu Activity Not available.
METAR KOKB 050352Z AUTO VRB03KT 10SM CLR 22/18 A2988 RMK AO2 SLP117 T02220178

More Conditions Fewer Conditions

Pressure 29.88 in
Visibility 10.0 miles
Clouds Clear
Heat Index 70 °F
Dew Point 67 °F
Humidity 85%
Rainfall 0.00 in
Snow Depth Not available.
UV 0 out of 12
Pollen 4.20 out of 12
Air Quality Not available.
Flu Activity Not available.
METAR KOKB 050352Z AUTO VRB03KT 10SM CLR 22/18 A2988 RMK AO2 SLP117 T02220178

More Conditions Fewer Conditions

10-Day Weather Forecast

×

Almanac

Astronomy

Aug. 04, 2015 Rise Set
Actual Time
Civil Twilight
Nautical Twilight
Astronomical Twilight
Moon
Length of Visible Light
Length of Day
Tomorrow will be .
, % of the Moon is Illuminated

Today's Extremes

State Highs State Lows

Community

WunderPhotos

Upload Photos

1,844,094 photos uploaded!

WunderBlogs® & News

Nearby

Air Quality

  Air Quality AQ Index Pollutant
Not available.

Snow Depth

Station Depth Elevation

Earthquake Activity

City Distance Mag. Time & Date
Minimum magnitude displayed is 2.5.

Coastal Water Temperatures

Place Temperature

Stations

Nearby Weather Stations

Station Location Temp. Windchill Dew Point Humidity Wind Precip. Elev Updated Type